Time;durP1;ratioP1;P1;durP2;ratioP2;P2;SDS_P1;SDS_P2;PMS_P1;PMS_P2;Temp;Humidity;BMP_temperature;BMP_pressure;BME280_temperature;BME280_humidity;BME280_pressure;Samples;Min_cycle;Max_cycle;Signal;HPM_P1;HPM_P2
2023/07/07 00:33:27;1247546.00;4.16;2176.42;45317.00;0.15;79.09;;;;;21.60;1.00;;;;;;2290896;60;1061;-89
2023/07/07 00:41:00;1026065.00;3.42;1778.69;0.00;0.00;0.62;;;;;21.50;1.00;;;;;;2286771;61;1313;-91
2023/07/07 00:46:00;1154911.00;3.85;2008.91;828.00;0.00;2.06;;;;;21.60;1.00;;;;;;2286880;61;1885;-89
2023/07/07 02:21:20;1199254.00;4.00;2088.87;85380.00;0.28;148.33;;;;;20.60;1.00;;;;;;2528930;55;3587;31
2023/07/07 02:26:18;1481896.00;4.94;2609.10;124996.00;0.42;216.70;;;;;20.20;1.00;;;;;;2278485;61;1879;-89
2023/07/07 02:31:25;1793367.00;5.98;3208.31;122947.00;0.41;213.17;;;;;20.40;1.00;;;;;;2278362;61;1335;-91
2023/07/07 02:41:34;1105198.00;3.68;1919.72;0.00;0.00;0.62;;;;;20.70;1.00;;;;;;2274499;61;970;-93
2023/07/07 02:46:29;1139863.00;3.80;1981.86;51926.00;0.17;90.52;;;;;20.60;1.00;;;;;;2278599;61;1937;-91
2023/07/07 02:51:30;983552.00;3.28;1703.36;0.00;0.00;0.62;;;;;20.00;1.00;;;;;;2278394;61;1311;-92
2023/07/07 02:57:04;1556979.00;5.19;2750.80;0.00;0.00;0.62;;;;;20.00;1.00;;;;;;2278030;61;1346;-91
2023/07/07 03:10:13;171004.00;0.57;296.00;74749.00;0.25;129.97;;;;;19.70;1.00;;;;;;2555665;55;1712;31
2023/07/07 03:27:44;1135178.00;3.78;1973.45;78895.00;0.26;137.13;;;;;19.50;1.00;;;;;;2270006;61;1320;-91
2023/07/07 03:47:44;1698042.00;5.66;3021.62;133844.00;0.45;231.96;;;;;19.10;1.00;;;;;;2313636;40;3506;-87
2023/07/07 04:15:20;1242800.00;4.14;2167.80;0.00;0.00;0.62;;;;;18.60;1.00;;;;;;2510269;55;3641;31
2023/07/07 05:25:19;1099414.00;3.66;1909.38;25434.00;0.08;44.68;;;;;21.40;1.00;;;;;;1594434;40;3465;-90
2023/07/07 05:30:16;1182103.00;3.94;2057.90;0.00;0.00;0.62;;;;;21.00;1.00;;;;;;2294977;40;3448;-90
2023/07/07 05:40:12;673843.00;2.25;1161.91;0.00;0.00;0.62;;;;;22.50;1.00;;;;;;2298154;40;3533;-88
2023/07/07 05:55:18;597372.00;1.99;1029.68;0.00;0.00;0.62;;;;;26.40;1.00;;;;;;2277815;61;1399;-88
2023/07/07 05:57:45;193709.00;0.65;335.09;0.00;0.00;0.62;;;;;27.40;1.00;;;;;;2278352;55;3807;-88
2023/07/07 06:00:14;195375.00;0.65;337.96;0.00;0.00;0.62;;;;;28.10;1.00;;;;;;2272051;61;1620;-88
2023/07/07 06:02:41;326662.00;1.09;563.75;0.00;0.00;0.62;;;;;29.10;1.00;;;;;;2271818;61;1425;-88
2023/07/07 06:05:09;278063.00;0.93;480.21;8726.00;0.03;15.74;;;;;29.70;1.00;;;;;;2284571;40;3614;-89
2023/07/07 06:07:36;361358.00;1.20;623.38;30176.00;0.10;52.89;;;;;30.80;1.00;;;;;;2271881;61;1932;-87
2023/07/07 06:10:06;305188.00;1.02;526.84;0.00;0.00;0.62;;;;;31.70;1.00;;;;;;2271989;61;1631;-86
2023/07/07 06:12:35;238122.00;0.79;411.52;55531.00;0.19;96.75;;;;;32.10;1.00;;;;;;2272039;61;1619;-87
2023/07/07 06:15:04;210884.00;0.70;364.66;0.00;0.00;0.62;;;;;32.60;1.00;;;;;;2271871;61;1815;-86
2023/07/07 06:17:31;422793.00;1.41;728.99;2960.00;0.01;5.75;;;;;33.40;1.00;;;;;;2351366;40;3753;-88
2023/07/07 06:19:58;123634.00;0.41;214.35;0.00;0.00;0.62;;;;;33.30;1.00;;;;;;2280037;40;3578;-88
2023/07/07 06:22:25;185754.00;0.62;321.40;0.00;0.00;0.62;;;;;33.00;1.00;;;;;;2271822;61;998;-88
2023/07/07 06:27:21;859371.00;2.86;1484.87;0.00;0.00;0.62;;;;;33.70;1.00;;;;;;2280206;61;1965;-91
2023/07/07 06:29:50;31665.00;0.11;55.46;0.00;0.00;0.62;;;;;34.10;1.00;;;;;;2285989;55;3738;-88
2023/07/07 06:32:17;40138.00;0.13;70.13;0.00;0.00;0.62;;;;;34.50;1.00;;;;;;2284492;40;3550;-88
2023/07/07 06:34:43;205592.00;0.69;355.55;0.00;0.00;0.62;;;;;34.20;1.00;;;;;;2272407;61;2464;-89
2023/07/07 06:37:10;148370.00;0.49;257.00;0.00;0.00;0.62;;;;;34.90;1.00;;;;;;2272541;61;1691;-89
2023/07/07 06:39:37;237380.00;0.79;410.24;0.00;0.00;0.62;;;;;34.50;1.00;;;;;;2272602;61;1600;-89
2023/07/07 06:42:05;131898.00;0.44;228.60;0.00;0.00;0.62;;;;;34.80;1.00;;;;;;2271859;61;1744;-88
2023/07/07 06:44:32;139199.00;0.46;241.19;0.00;0.00;0.62;;;;;34.70;1.00;;;;;;2271964;61;996;-89
2023/07/07 06:47:01;131988.00;0.44;228.76;0.00;0.00;0.62;;;;;34.70;1.00;;;;;;2271915;61;1979;-88
2023/07/07 06:57:02;396719.00;1.32;684.16;0.00;0.00;0.62;;;;;35.70;1.00;;;;;;2281800;61;1438;-90
2023/07/07 06:59:29;277641.00;0.93;479.48;0.00;0.00;0.62;;;;;35.50;1.00;;;;;;2280109;61;1612;-89
2023/07/07 07:01:56;247434.00;0.82;427.54;0.00;0.00;0.62;;;;;35.70;1.00;;;;;;2279991;61;1759;-89
2023/07/07 07:04:24;355433.00;1.18;613.20;88938.00;0.30;154.47;;;;;35.80;1.00;;;;;;2279862;60;1015;-90
2023/07/07 07:06:51;101500.00;0.34;176.16;0.00;0.00;0.62;;;;;36.20;1.00;;;;;;2280016;61;1997;-88
2023/07/07 07:09:18;285811.00;0.95;493.53;27042.00;0.09;47.46;;;;;36.10;1.00;;;;;;2279932;61;1724;-90
2023/07/07 07:11:45;108204.00;0.36;187.73;0.00;0.00;0.62;;;;;36.80;1.00;;;;;;2280002;60;1744;-89
2023/07/07 07:14:12;86963.00;0.29;151.06;0.00;0.00;0.62;;;;;36.70;1.00;;;;;;2279987;61;1002;-89
2023/07/07 07:16:38;62243.00;0.21;108.35;0.00;0.00;0.62;;;;;36.70;1.00;;;;;;2280051;61;1059;-88
2023/07/07 07:19:05;188261.00;0.63;325.71;11460.00;0.04;20.48;;;;;36.20;1.00;;;;;;2279786;61;1421;-89
2023/07/07 07:21:34;106328.00;0.35;184.49;0.00;0.00;0.62;;;;;36.40;1.00;;;;;;2279869;61;2310;-89
2023/07/07 07:24:00;89562.00;0.30;155.55;0.00;0.00;0.62;;;;;37.20;1.00;;;;;;2279962;61;1163;-88
2023/07/07 07:26:27;159030.00;0.53;275.37;0.00;0.00;0.62;;;;;37.00;1.00;;;;;;2307437;40;3610;-88
2023/07/07 07:28:54;82396.00;0.27;143.18;0.00;0.00;0.62;;;;;36.90;1.00;;;;;;2271886;61;1245;-88
2023/07/07 07:31:21;123154.00;0.41;213.52;0.00;0.00;0.62;;;;;37.10;1.00;;;;;;2271751;61;1617;-89
2023/07/07 07:33:53;74084.00;0.25;128.82;0.00;0.00;0.62;;;;;38.10;1.00;;;;;;2271742;61;1596;-89
2023/07/07 07:36:20;58351.00;0.19;101.63;0.00;0.00;0.62;;;;;38.50;1.00;;;;;;2271878;61;1038;-89
2023/07/07 07:38:49;228834.00;0.76;395.54;36821.00;0.12;64.39;;;;;37.90;1.00;;;;;;2271611;61;1360;-89
2023/07/07 07:41:16;195680.00;0.65;338.49;14860.00;0.05;26.37;;;;;38.00;1.00;;;;;;2285477;40;3598;-90
2023/07/07 07:43:43;222801.00;0.74;385.16;0.00;0.00;0.62;;;;;38.10;1.00;;;;;;2288043;60;1927;-89
2023/07/07 07:46:10;193490.00;0.64;334.72;0.00;0.00;0.62;;;;;38.80;1.00;;;;;;2287892;60;1989;-89
2023/07/07 07:48:36;280414.00;0.93;484.25;39798.00;0.13;69.54;;;;;38.10;1.00;;;;;;2287881;60;1583;-90
2023/07/07 07:51:03;114202.00;0.38;198.08;0.00;0.00;0.62;;;;;39.00;1.00;;;;;;2288018;60;992;-89
2023/07/07 07:53:30;111333.00;0.37;193.13;0.00;0.00;0.62;;;;;37.80;1.00;;;;;;2287857;60;1638;-89
2023/07/07 07:55:59;167336.00;0.56;289.68;0.00;0.00;0.62;;;;;37.70;1.00;;;;;;2287885;60;1042;-88
2023/07/07 08:03:28;788933.00;2.63;1361.83;0.00;0.00;0.62;;;;;36.70;1.00;;;;;;2281511;61;1237;-88
2023/07/07 08:08:24;555823.00;1.85;958.00;0.00;0.00;0.62;;;;;36.30;1.00;;;;;;2277741;61;1420;-91
2023/07/07 08:15:50;759207.00;2.53;1310.07;0.00;0.00;0.62;;;;;37.40;1.00;;;;;;2291733;40;3477;-91
2023/07/07 08:18:17;141795.00;0.47;245.67;0.00;0.00;0.62;;;;;38.00;1.00;;;;;;2274572;61;1359;-90
2023/07/07 08:20:44;333302.00;1.11;575.16;0.00;0.00;0.62;;;;;37.50;1.00;;;;;;2308352;41;3644;-89
2023/07/07 08:23:11;134361.00;0.45;232.85;0.00;0.00;0.62;;;;;38.00;1.00;;;;;;2285761;55;3766;-90
2023/07/07 08:45:53;1059634.00;3.53;1838.38;0.00;0.00;0.62;;;;;37.50;1.00;;;;;;2281877;61;1361;-90
2023/07/07 08:48:32;245378.00;0.82;424.00;0.00;0.00;0.62;;;;;37.40;1.00;;;;;;2280249;61;2008;-89
2023/07/07 09:46:15;436843.00;1.46;753.15;0.00;0.00;0.62;;;;;33.90;1.00;;;;;;2281733;61;1279;-89
2023/07/07 09:48:52;51689.00;0.17;90.11;0.00;0.00;0.62;;;;;34.30;1.00;;;;;;2280334;61;1387;-87
2023/07/07 09:51:34;0.00;0.00;0.62;0.00;0.00;0.62;;;;;34.10;1.00;;;;;;2280300;61;1319;-88
2023/07/07 09:54:01;161905.00;0.54;280.32;0.00;0.00;0.62;;;;;34.30;1.00;;;;;;2280305;61;2242;-87
2023/07/07 09:56:46;50486.00;0.17;88.03;0.00;0.00;0.62;;;;;34.40;1.00;;;;;;2280341;61;1006;-87
2023/07/07 09:59:21;90511.00;0.30;157.19;0.00;0.00;0.62;;;;;34.50;1.00;;;;;;2280307;61;1385;-88
2023/07/07 10:01:54;69055.00;0.23;120.13;0.00;0.00;0.62;;;;;34.40;1.00;;;;;;2310429;39;3565;-86
2023/07/07 10:04:24;202309.00;0.67;349.90;0.00;0.00;0.62;;;;;34.30;1.00;;;;;;2276146;61;1054;-88
2023/07/07 10:06:56;0.00;0.00;0.62;0.00;0.00;0.62;;;;;34.20;1.00;;;;;;2276149;61;2007;-88
2023/07/07 10:09:24;114858.00;0.38;199.21;0.00;0.00;0.62;;;;;34.60;1.00;;;;;;2276085;61;1391;-88
2023/07/07 10:11:52;120173.00;0.40;208.38;0.00;0.00;0.62;;;;;34.20;1.00;;;;;;2276113;61;1032;-87
2023/07/07 10:14:19;104389.00;0.35;181.15;0.00;0.00;0.62;;;;;33.90;1.00;;;;;;2290955;40;3730;-88
2023/07/07 10:17:00;865872.00;2.89;1496.26;32321.00;0.11;56.60;;;;;34.20;1.00;;;;;;2276194;61;1742;-89
2023/07/07 10:19:28;531025.00;1.77;915.26;0.00;0.00;0.62;;;;;34.30;1.00;;;;;;2272113;61;990;-88
2023/07/07 10:21:55;952656.00;3.18;1648.80;132632.00;0.44;229.87;;;;;34.30;1.00;;;;;;2272041;61;915;-87
2023/07/07 10:24:23;1146486.00;3.82;1993.76;131115.00;0.44;227.25;;;;;34.30;1.00;;;;;;2272023;61;938;-88
2023/07/07 10:26:50;727629.00;2.43;1255.18;44479.00;0.15;77.64;;;;;34.50;1.00;;;;;;2272030;61;1988;-87
2023/07/07 10:29:22;1049483.00;3.50;1820.31;260773.00;0.87;450.48;;;;;34.10;1.00;;;;;;2272025;61;1375;-86
2023/07/07 10:31:52;938724.00;3.13;1624.24;166123.00;0.55;287.59;;;;;34.10;1.00;;;;;;2272057;61;1156;-88
2023/07/07 10:34:27;435494.00;1.45;750.83;67370.00;0.22;117.22;;;;;34.00;1.00;;;;;;2272010;61;1708;-89
2023/07/07 10:36:55;1474647.00;4.92;2595.50;141181.00;0.47;244.61;;;;;33.80;1.00;;;;;;2272093;61;1747;-87
2023/07/07 10:39:30;1011246.00;3.37;1752.40;177385.00;0.59;306.99;;;;;33.80;1.00;;;;;;2272009;61;1314;-91
2023/07/07 10:41:57;893167.00;2.98;1544.12;78777.00;0.26;136.92;;;;;33.70;1.00;;;;;;2272067;61;2129;-89
2023/07/07 10:44:26;1051993.00;3.51;1824.78;167914.00;0.56;290.67;;;;;34.00;1.00;;;;;;2271965;61;1097;-88
2023/07/07 10:46:55;1458762.00;4.86;2565.76;203769.00;0.68;352.41;;;;;33.80;1.00;;;;;;2272018;61;1996;-89
2023/07/07 10:49:26;347029.00;1.16;598.75;63452.00;0.21;110.44;;;;;33.90;1.00;;;;;;2272057;61;1314;-88
2023/07/07 10:52:11;396946.00;1.32;684.56;138928.00;0.46;240.72;;;;;33.80;1.00;;;;;;2271823;61;1746;-88
2023/07/07 10:54:48;136021088.00;453.40;101983800.00;71276.00;0.24;123.97;;;;;33.60;1.00;;;;;;2271917;61;938;-88
2023/07/07 10:57:32;848818.00;2.83;1466.40;87333.00;0.29;151.70;;;;;33.60;1.00;;;;;;2271841;61;1447;-87
2023/07/07 11:00:11;1046411.00;3.49;1814.85;70626.00;0.24;122.84;;;;;33.90;1.00;;;;;;2271907;61;1268;-89
2023/07/07 11:02:52;1478476.00;4.93;2602.68;280140.00;0.93;483.78;;;;;34.20;1.00;;;;;;2271830;61;995;-88
2023/07/07 11:05:35;719057.00;2.40;1240.30;30602.00;0.10;53.63;;;;;34.50;1.00;;;;;;2306013;56;3758;-89
2023/07/07 11:08:17;610099.00;2.03;1051.66;146058.00;0.49;253.01;;;;;34.50;1.00;;;;;;2275692;61;1997;-88
2023/07/07 11:11:19;654972.00;2.18;1129.24;105027.00;0.35;182.25;;;;;34.20;1.00;;;;;;2275718;61;992;-87
2023/07/07 11:14:12;1152032.00;3.84;2003.73;77032.00;0.26;133.91;;;;;34.10;1.00;;;;;;2269553;61;1715;-88
2023/07/07 11:16:48;692815.00;2.31;1194.78;54924.00;0.18;95.70;;;;;34.20;1.00;;;;;;2275926;61;1581;-88
2023/07/07 11:19:55;774199.00;2.58;1336.16;46132.00;0.15;80.50;;;;;34.20;1.00;;;;;;2275867;61;2338;-88
2023/07/07 11:22:40;172532.00;0.58;298.63;0.00;0.00;0.62;;;;;34.10;1.00;;;;;;2275760;61;1069;-87
2023/07/07 11:25:20;235046.00;0.78;406.23;0.00;0.00;0.62;;;;;33.80;1.00;;;;;;2275888;61;1115;-88
2023/07/07 11:28:03;554020.00;1.85;954.89;0.00;0.00;0.62;;;;;33.10;1.00;;;;;;2289051;40;3621;-87
2023/07/07 11:30:44;395016.00;1.32;681.24;0.00;0.00;0.62;;;;;33.10;1.00;;;;;;2285476;39;3575;-86
2023/07/07 11:33:29;200002.00;0.67;345.93;0.00;0.00;0.62;;;;;33.40;1.00;;;;;;2275791;61;2390;-88
2023/07/07 11:36:10;310053.00;1.03;535.20;92510.00;0.31;160.64;;;;;33.40;1.00;;;;;;2275775;61;1084;-87
2023/07/07 11:41:18;1125636.00;3.75;1956.33;115700.00;0.39;200.66;;;;;33.10;1.00;;;;;;2281918;61;1405;-88
2023/07/07 11:46:54;1582435.00;5.27;2799.22;65356.00;0.22;113.73;;;;;33.50;1.00;;;;;;2282332;61;1399;-89
2023/07/07 11:49:45;559735.00;1.87;964.74;100648.00;0.34;174.69;;;;;33.60;1.00;;;;;;2280474;61;1412;-87
2023/07/07 11:52:27;69592.00;0.23;121.06;0.00;0.00;0.62;;;;;33.30;1.00;;;;;;2280426;61;1493;-87
2023/07/07 11:55:16;311107.00;1.04;537.01;14348.00;0.05;25.48;;;;;33.40;1.00;;;;;;2280543;61;988;-87
2023/07/07 11:58:00;225199.00;0.75;389.29;59587.00;0.20;103.76;;;;;33.70;1.00;;;;;;2295038;39;3719;-87
2023/07/07 12:00:44;437879.00;1.46;754.94;12687.00;0.04;22.60;;;;;33.40;1.00;;;;;;2276235;61;1710;-88
2023/07/07 12:05:43;1441744.00;4.81;2533.97;12375.00;0.04;22.06;;;;;33.80;1.00;;;;;;2282505;61;1377;-86
2023/07/07 12:08:16;119749072.00;399.16;69561400.00;87745.00;0.29;152.41;;;;;33.60;1.00;;;;;;2280525;61;1906;-88
2023/07/07 12:10:49;384993.00;1.28;664.01;69840.00;0.23;121.48;;;;;33.60;1.00;;;;;;2280610;61;1646;-87
2023/07/07 12:13:25;395562.00;1.32;682.18;79320.00;0.26;137.86;;;;;33.90;1.00;;;;;;2280535;61;1594;-88
2023/07/07 12:16:00;448657.00;1.50;773.47;108328.00;0.36;187.94;;;;;33.80;1.00;;;;;;2280510;61;1193;-87
2023/07/07 12:18:32;630981.00;2.10;1087.74;60141.00;0.20;104.72;;;;;33.90;1.00;;;;;;2280456;61;1311;-89
2023/07/07 12:21:07;338420.00;1.13;583.96;64977.00;0.22;113.08;;;;;33.90;1.00;;;;;;2285838;55;3739;-89
2023/07/07 12:23:39;348523.00;1.16;601.32;64064.00;0.21;111.50;;;;;34.10;1.00;;;;;;2276447;61;1765;-89
2023/07/07 12:26:17;154257.00;0.51;267.14;0.00;0.00;0.62;;;;;33.70;1.00;;;;;;2290600;55;3737;-87
2023/07/07 12:28:50;155045.00;0.52;268.50;0.00;0.00;0.62;;;;;33.10;1.00;;;;;;2276413;61;1996;-89
2023/07/07 12:31:20;165274.00;0.55;286.13;0.00;0.00;0.62;;;;;33.10;1.00;;;;;;2276619;61;980;-88
2023/07/07 12:33:51;55099.00;0.18;96.00;0.00;0.00;0.62;;;;;33.60;1.00;;;;;;2276511;61;1164;-89
2023/07/07 12:36:19;192221.00;0.64;332.53;0.00;0.00;0.62;;;;;33.70;1.00;;;;;;2270328;39;1478753;-88
2023/07/07 12:38:53;180203.00;0.60;311.84;0.00;0.00;0.62;;;;;34.00;1.00;;;;;;2276508;61;1529;-89
2023/07/07 12:41:25;187246.00;0.62;323.97;0.00;0.00;0.62;;;;;33.90;1.00;;;;;;2281290;55;3742;-89
2023/07/07 12:43:56;139951.00;0.47;242.49;0.00;0.00;0.62;;;;;34.10;1.00;;;;;;2276450;61;1493;-88
2023/07/07 12:46:28;160021.00;0.53;277.08;0.00;0.00;0.62;;;;;34.00;1.00;;;;;;2276680;61;1032;-89
2023/07/07 12:48:59;124980.00;0.42;216.67;0.00;0.00;0.62;;;;;34.10;1.00;;;;;;2276374;61;2013;-88
2023/07/07 12:51:30;234017.00;0.78;404.46;0.00;0.00;0.62;;;;;34.10;1.00;;;;;;2276496;61;922;-89
2023/07/07 12:56:32;1069354.00;3.56;1855.70;0.00;0.00;0.62;;;;;34.10;1.00;;;;;;2285700;56;3656;-87
2023/07/07 12:59:01;163138.00;0.54;282.45;0.00;0.00;0.62;;;;;33.80;1.00;;;;;;2276215;61;1398;-88
2023/07/07 13:01:36;156197.00;0.52;270.49;0.00;0.00;0.62;;;;;33.60;1.00;;;;;;2275973;61;1197;-88
2023/07/07 13:04:16;258294.00;0.86;446.21;0.00;0.00;0.62;;;;;33.70;1.00;;;;;;2276280;61;1531;-88
2023/07/07 13:07:01;82050.00;0.27;142.58;0.00;0.00;0.62;;;;;33.80;1.00;;;;;;2276277;61;1723;-88
2023/07/07 13:09:28;328102.00;1.09;566.22;2608.00;0.01;5.14;;;;;33.50;1.00;;;;;;2276430;61;1779;-87
2023/07/07 13:11:59;688529.00;2.30;1187.35;33864.00;0.11;59.27;;;;;33.50;1.00;;;;;;2276315;61;1587;-89
2023/07/07 13:17:06;2146624.00;7.16;3929.87;194485.00;0.65;336.43;;;;;33.00;1.00;;;;;;1974714;40;3343;-89
2023/07/07 13:32:31;1638918.00;5.46;2907.35;0.00;0.00;0.62;;;;;33.40;1.00;;;;;;2326844;55;3571;-88
2023/07/07 13:35:03;1178966.00;3.93;2052.24;30687.00;0.10;53.77;;;;;33.80;1.00;;;;;;2285773;40;3754;-88
2023/07/07 13:40:00;1826165.00;6.09;3273.28;101137.00;0.34;175.53;;;;;33.50;1.00;;;;;;2289398;55;3611;-89
2023/07/07 13:45:07;845220.00;2.82;1460.10;10335.00;0.03;18.53;;;;;33.50;1.00;;;;;;2279407;56;1526;-91
2023/07/07 13:47:40;1178811.00;3.93;2051.96;65346.00;0.22;113.72;;;;;33.60;1.00;;;;;;2283381;56;3746;-87
2023/07/07 13:52:45;1518050.00;5.06;2677.13;28209.00;0.09;49.48;;;;;33.30;1.00;;;;;;2282721;61;1315;-89
2023/07/07 13:55:13;914341.00;3.05;1581.32;77483.00;0.26;134.69;;;;;33.20;1.00;;;;;;2280907;61;1717;-90
2023/07/07 13:57:43;623311.00;2.08;1074.49;0.00;0.00;0.62;;;;;33.40;1.00;;;;;;2280934;61;1206;-88
2023/07/07 14:00:19;557224.00;1.86;960.41;6859.00;0.02;12.51;;;;;33.80;1.00;;;;;;2280953;61;1754;-89
2023/07/07 14:02:51;756845.00;2.52;1305.96;36010.00;0.12;62.98;;;;;33.50;1.00;;;;;;2353091;40;3731;-88
2023/07/07 14:05:21;493085.00;1.64;849.92;21940.00;0.07;38.63;;;;;33.20;1.00;;;;;;2299797;40;3772;-89
2023/07/07 14:07:50;504598.00;1.68;869.74;6499.00;0.02;11.88;;;;;33.20;1.00;;;;;;2316114;40;3648;-87
2023/07/07 14:12:46;1641470.00;5.47;2912.26;12924.00;0.04;23.01;;;;;33.70;1.00;;;;;;2311746;40;3642;-89
2023/07/07 14:15:14;722276.00;2.41;1245.89;28992.00;0.10;50.84;;;;;34.10;1.00;;;;;;2286168;55;3822;-88
2023/07/07 14:17:44;992441.00;3.31;1719.09;99904.00;0.33;173.41;;;;;34.20;1.00;;;;;;2276093;61;1732;-88
2023/07/07 14:22:52;895976.00;2.99;1549.05;15550.00;0.05;27.56;;;;;34.20;1.00;;;;;;2295390;39;3507;-89
2023/07/07 14:25:22;327777.00;1.09;565.67;2398.00;0.01;4.78;;;;;33.90;1.00;;;;;;2276691;61;1639;-88
2023/07/07 14:27:53;669679.00;2.23;1154.70;4142.00;0.01;7.80;;;;;34.10;1.00;;;;;;2276616;61;1923;-88
2023/07/07 14:30:24;978565.00;3.26;1694.54;34100.00;0.11;59.68;;;;;34.20;1.00;;;;;;2283378;56;3806;-87
2023/07/07 14:32:55;1001158.00;3.34;1734.52;0.00;0.00;0.62;;;;;34.20;1.00;;;;;;2291133;56;3755;-87
2023/07/07 14:35:25;574761.00;1.92;990.66;0.00;0.00;0.62;;;;;34.20;1.00;;;;;;2278557;39;3619;-87
2023/07/07 14:37:57;449572.00;1.50;775.05;0.00;0.00;0.62;;;;;33.90;1.00;;;;;;2284970;55;3853;-88
2023/07/07 14:40:27;603903.00;2.01;1040.96;0.00;0.00;0.62;;;;;33.80;1.00;;;;;;2290818;56;3703;-88
2023/07/07 14:42:55;771189.00;2.57;1330.92;144638.00;0.48;250.57;;;;;33.90;1.00;;;;;;2275837;61;979;-87
2023/07/07 14:45:28;903212.00;3.01;1561.76;157033.00;0.52;271.93;;;;;34.20;1.00;;;;;;2290057;55;3809;-87
2023/07/07 14:50:35;1825546.00;6.09;3272.05;54117.00;0.18;94.31;;;;;34.30;1.00;;;;;;2301441;55;3704;-88
2023/07/07 14:55:40;539760.00;1.80;930.31;0.00;0.00;0.62;;;;;33.40;1.00;;;;;;2284888;56;1633;-89
2023/07/07 14:58:17;522881.00;1.74;901.23;12833.00;0.04;22.86;;;;;33.50;1.00;;;;;;2276547;61;1573;-88
2023/07/07 15:03:41;119511.00;0.40;207.24;0.00;0.00;0.62;;;;;34.10;1.00;;;;;;2406004;40;1826;-90
2023/07/07 15:08:43;1136618.00;3.79;1976.03;47816.00;0.16;83.41;;;;;33.80;1.00;;;;;;2282535;61;1953;-88
2023/07/07 15:13:48;490247.00;1.63;845.03;135630.00;0.45;235.04;;;;;34.00;1.00;;;;;;2404682;40;1994;-86
2023/07/07 15:16:23;303236.00;1.01;523.48;0.00;0.00;0.62;;;;;34.30;1.00;;;;;;2276455;61;1623;-90
2023/07/07 15:18:50;680989.00;2.27;1174.29;0.00;0.00;0.62;;;;;34.10;1.00;;;;;;2307429;40;3661;-88
2023/07/07 15:21:28;261355.00;0.87;451.48;0.00;0.00;0.62;;;;;34.00;1.00;;;;;;2276438;61;1698;-88
2023/07/07 15:26:28;881146.00;2.94;1523.03;0.00;0.00;0.62;;;;;34.10;1.00;;;;;;2282312;61;1304;-88
2023/07/07 15:29:00;433255.00;1.44;746.98;0.00;0.00;0.62;;;;;33.80;1.00;;;;;;2358032;40;3696;-88
2023/07/07 15:41:41;839311.00;2.80;1449.77;0.00;0.00;0.62;;;;;33.20;1.00;;;;;;2311578;39;3532;-85
2023/07/07 15:44:10;1546193.00;5.15;2730.34;0.00;0.00;0.62;;;;;33.40;1.00;;;;;;2272947;61;1555;-89
2023/07/07 15:46:41;112638.00;0.38;195.38;0.00;0.00;0.62;;;;;33.60;1.00;;;;;;2287073;40;3595;-87
2023/07/07 15:54:11;873786.00;2.91;1510.13;40376.00;0.13;70.54;;;;;33.70;1.00;;;;;;2281401;61;1408;-89
2023/07/07 15:56:40;257008.00;0.86;444.00;0.00;0.00;0.62;;;;;33.90;1.00;;;;;;2290527;55;3748;-87
2023/07/07 15:59:15;252289.00;0.84;435.89;0.00;0.00;0.62;;;;;34.20;1.00;;;;;;2275839;61;1403;-90
2023/07/07 16:01:43;366238.00;1.22;631.77;0.00;0.00;0.62;;;;;34.30;1.00;;;;;;2275758;61;1040;-88
2023/07/07 16:04:10;163900.00;0.55;283.76;0.00;0.00;0.62;;;;;34.40;1.00;;;;;;2275736;61;1850;-88
2023/07/07 16:06:41;167439.00;0.56;289.86;0.00;0.00;0.62;;;;;34.40;1.00;;;;;;2298744;55;3765;-87
2023/07/07 16:11:39;786178.00;2.62;1357.03;0.00;0.00;0.62;;;;;33.90;1.00;;;;;;2286115;40;3520;-87
2023/07/07 16:47:29;1065623.00;3.55;1849.05;50889.00;0.17;88.72;;;;;33.30;1.00;;;;;;2288872;60;1403;-87
2023/07/07 16:49:56;0.00;0.00;0.62;0.00;0.00;0.62;;;;;33.60;1.00;;;;;;2288673;60;2002;-86
2023/07/07 16:57:20;1730249.00;5.77;3084.35;75528.00;0.25;131.31;;;;;32.90;1.00;;;;;;1966864;40;3422;-87
2023/07/07 17:02:23;426117.00;1.42;734.71;0.00;0.00;0.62;;;;;32.60;1.00;;;;;;2298443;56;1758;-89
2023/07/07 17:22:46;1658081.00;5.53;2944.26;15689.00;0.05;27.80;;;;;33.30;1.00;;;;;;2388755;40;3594;-88
2023/07/07 17:47:53;1235458.00;4.12;2154.46;59687.00;0.20;103.94;;;;;33.20;1.00;;;;;;1591978;40;3418;-88
2023/07/07 17:55:33;1434789.00;4.78;2521.00;1912.00;0.01;3.93;;;;;33.20;1.00;;;;;;2333392;40;3467;-88
2023/07/07 17:58:01;231893.00;0.77;400.81;0.00;0.00;0.62;;;;;33.10;1.00;;;;;;2301848;40;3719;-87
2023/07/07 18:08:11;1262569.00;4.21;2203.76;61298.00;0.20;106.72;;;;;32.70;1.00;;;;;;2329298;39;3679;-88
2023/07/07 18:18:23;1580233.00;5.27;2795.02;84646.00;0.28;147.06;;;;;32.40;1.00;;;;;;2282209;61;1324;-89
2023/07/07 18:20:53;1211786.00;4.04;2111.54;146387.00;0.49;253.58;;;;;32.50;1.00;;;;;;2280696;61;1633;-88
2023/07/07 18:51:17;900817.00;3.00;1557.55;0.00;0.00;0.62;;;;;31.70;1.00;;;;;;2360243;40;3462;-89
2023/07/07 18:58:47;1245402.00;4.15;2172.53;0.00;0.00;0.62;;;;;31.40;1.00;;;;;;1576143;55;3613;-88
2023/07/07 19:01:16;671762.00;2.24;1158.30;2076.00;0.01;4.22;;;;;31.40;1.00;;;;;;2280996;56;3765;-90
2023/07/07 19:24:03;1447424.00;4.82;2544.57;49550.00;0.17;86.41;;;;;30.70;1.00;;;;;;1987147;56;3512;-90
2023/07/07 19:31:33;1130609.00;3.77;1965.25;0.00;0.00;0.62;;;;;30.20;1.00;;;;;;2282371;61;1356;-88
2023/07/07 20:19:39;1195279.00;3.98;2081.69;69773.00;0.23;121.37;;;;;29.00;1.00;;;;;;2283061;61;1004;-89
2023/07/07 21:28:37;1232953.00;4.11;2149.91;14649.00;0.05;26.00;;;;;27.10;1.00;;;;;;1225658;55;3622;-87
2023/07/07 21:31:12;325870.00;1.09;562.39;20493.00;0.07;36.12;;;;;27.10;1.00;;;;;;2356088;40;3600;-89
2023/07/07 21:46:34;1234023.00;4.11;2151.86;0.00;0.00;0.62;;;;;26.90;1.00;;;;;;1957982;56;3542;-88
2023/07/07 21:59:16;1421737.00;4.74;2496.70;19129.00;0.06;33.76;;;;;26.70;1.00;;;;;;1937288;56;3601;-90
2023/07/07 22:06:48;522305.00;1.74;900.24;0.00;0.00;0.62;;;;;26.80;1.00;;;;;;1827975;40;3222;-88
2023/07/07 22:09:17;451782.00;1.51;778.85;92755.00;0.31;161.06;;;;;26.80;1.00;;;;;;2284563;61;2013;-90
2023/07/07 22:34:57;2481941.00;8.27;4665.44;99484.00;0.33;172.68;;;;;26.40;1.00;;;;;;2289421;56;3611;-89
2023/07/07 23:02:44;1249089.00;4.16;2179.23;0.00;0.00;0.62;;;;;26.00;1.00;;;;;;2301769;56;3673;-87
2023/07/07 23:07:41;1737510.00;5.79;3098.54;80218.00;0.27;139.41;;;;;26.20;1.00;;;;;;1567264;41;3463;-90
